sensor_id;sensor_type;location;lat;lon;timestamp;temperature;humidity
13344;DHT22;6741;48.964;9.406;2023-10-31T00:02:09;11.50;99.90
13344;DHT22;6741;48.964;9.406;2023-10-31T00:04:37;11.50;99.90
13344;DHT22;6741;48.964;9.406;2023-10-31T00:07:04;11.50;99.90
13344;DHT22;6741;48.964;9.406;2023-10-31T00:09:31;11.40;99.90
13344;DHT22;6741;48.964;9.406;2023-10-31T00:11:58;11.40;99.90
13344;DHT22;6741;48.964;9.406;2023-10-31T00:14:25;11.30;99.90
13344;DHT22;6741;48.964;9.406;2023-10-31T00:16:52;11.30;99.90
13344;DHT22;6741;48.964;9.406;2023-10-31T00:19:19;11.30;99.90
13344;DHT22;6741;48.964;9.406;2023-10-31T00:21:47;11.30;99.90
13344;DHT22;6741;48.964;9.406;2023-10-31T00:24:14;11.40;99.90
13344;DHT22;6741;48.964;9.406;2023-10-31T00:26:40;11.30;99.90
13344;DHT22;6741;48.964;9.406;2023-10-31T00:29:07;11.30;99.90
13344;DHT22;6741;48.964;9.406;2023-10-31T00:31:34;11.30;99.90
13344;DHT22;6741;48.964;9.406;2023-10-31T00:34:01;11.30;99.90
13344;DHT22;6741;48.964;9.406;2023-10-31T00:36:28;11.30;99.90
13344;DHT22;6741;48.964;9.406;2023-10-31T00:38:56;11.30;99.90
13344;DHT22;6741;48.964;9.406;2023-10-31T00:41:23;11.30;99.90
13344;DHT22;6741;48.964;9.406;2023-10-31T00:43:50;11.30;99.90
13344;DHT22;6741;48.964;9.406;2023-10-31T00:46:17;11.30;99.90
13344;DHT22;6741;48.964;9.406;2023-10-31T00:48:44;11.20;99.90
13344;DHT22;6741;48.964;9.406;2023-10-31T00:51:10;11.20;99.90
13344;DHT22;6741;48.964;9.406;2023-10-31T00:53:38;11.20;99.90
13344;DHT22;6741;48.964;9.406;2023-10-31T00:56:07;11.20;99.90
13344;DHT22;6741;48.964;9.406;2023-10-31T00:58:34;11.10;99.90
13344;DHT22;6741;48.964;9.406;2023-10-31T01:01:01;11.10;99.90
13344;DHT22;6741;48.964;9.406;2023-10-31T01:03:27;11.00;99.90
13344;DHT22;6741;48.964;9.406;2023-10-31T01:05:55;11.00;99.90
13344;DHT22;6741;48.964;9.406;2023-10-31T01:08:22;10.90;99.90
13344;DHT22;6741;48.964;9.406;2023-10-31T01:10:49;10.90;99.90
13344;DHT22;6741;48.964;9.406;2023-10-31T01:13:17;10.90;99.90
13344;DHT22;6741;48.964;9.406;2023-10-31T01:15:44;10.80;99.90
13344;DHT22;6741;48.964;9.406;2023-10-31T01:18:11;10.80;99.90
13344;DHT22;6741;48.964;9.406;2023-10-31T01:20:38;10.70;99.90
13344;DHT22;6741;48.964;9.406;2023-10-31T01:23:05;10.60;99.90
13344;DHT22;6741;48.964;9.406;2023-10-31T01:25:32;10.60;99.90
13344;DHT22;6741;48.964;9.406;2023-10-31T01:27:58;10.40;99.90
13344;DHT22;6741;48.964;9.406;2023-10-31T01:30:27;10.40;99.90
13344;DHT22;6741;48.964;9.406;2023-10-31T01:32:54;10.40;99.90
13344;DHT22;6741;48.964;9.406;2023-10-31T01:35:20;10.30;99.90
13344;DHT22;6741;48.964;9.406;2023-10-31T01:37:47;10.30;99.90
13344;DHT22;6741;48.964;9.406;2023-10-31T01:40:14;10.20;99.90
13344;DHT22;6741;48.964;9.406;2023-10-31T01:42:41;10.20;99.90
13344;DHT22;6741;48.964;9.406;2023-10-31T01:45:08;10.10;99.90
13344;DHT22;6741;48.964;9.406;2023-10-31T01:47:37;10.10;99.90
13344;DHT22;6741;48.964;9.406;2023-10-31T01:50:06;10.10;99.90
13344;DHT22;6741;48.964;9.406;2023-10-31T01:52:35;10.00;99.90
13344;DHT22;6741;48.964;9.406;2023-10-31T01:55:04;10.00;99.90
13344;DHT22;6741;48.964;9.406;2023-10-31T01:57:32;9.90;99.90
13344;DHT22;6741;48.964;9.406;2023-10-31T01:59:59;9.90;99.90
13344;DHT22;6741;48.964;9.406;2023-10-31T02:02:27;9.90;99.90
13344;DHT22;6741;48.964;9.406;2023-10-31T02:04:58;9.90;99.90
13344;DHT22;6741;48.964;9.406;2023-10-31T02:07:25;9.90;99.90
13344;DHT22;6741;48.964;9.406;2023-10-31T02:09:52;9.80;99.90
13344;DHT22;6741;48.964;9.406;2023-10-31T02:12:32;9.80;99.90
13344;DHT22;6741;48.964;9.406;2023-10-31T02:14:59;9.90;99.90
13344;DHT22;6741;48.964;9.406;2023-10-31T02:17:26;9.90;99.90
13344;DHT22;6741;48.964;9.406;2023-10-31T02:19:53;10.00;99.90
13344;DHT22;6741;48.964;9.406;2023-10-31T02:22:21;10.00;99.90
13344;DHT22;6741;48.964;9.406;2023-10-31T02:24:48;10.00;99.90
13344;DHT22;6741;48.964;9.406;2023-10-31T02:27:15;10.00;99.90
13344;DHT22;6741;48.964;9.406;2023-10-31T02:29:42;10.00;99.90
13344;DHT22;6741;48.964;9.406;2023-10-31T02:32:09;10.00;99.90
13344;DHT22;6741;48.964;9.406;2023-10-31T02:34:36;10.10;99.90
13344;DHT22;6741;48.964;9.406;2023-10-31T02:37:03;10.00;99.90
13344;DHT22;6741;48.964;9.406;2023-10-31T02:39:32;10.10;99.90
13344;DHT22;6741;48.964;9.406;2023-10-31T02:41:59;10.10;99.90
13344;DHT22;6741;48.964;9.406;2023-10-31T02:44:26;10.00;99.90
13344;DHT22;6741;48.964;9.406;2023-10-31T02:46:53;10.00;99.90
13344;DHT22;6741;48.964;9.406;2023-10-31T02:49:20;10.00;99.90
13344;DHT22;6741;48.964;9.406;2023-10-31T02:51:47;9.90;99.90
13344;DHT22;6741;48.964;9.406;2023-10-31T02:54:14;9.90;99.90
13344;DHT22;6741;48.964;9.406;2023-10-31T02:56:42;9.90;99.90
13344;DHT22;6741;48.964;9.406;2023-10-31T02:59:09;9.80;99.90
13344;DHT22;6741;48.964;9.406;2023-10-31T03:01:36;9.70;99.90
13344;DHT22;6741;48.964;9.406;2023-10-31T03:04:03;9.70;99.90
13344;DHT22;6741;48.964;9.406;2023-10-31T03:06:30;9.70;99.90
13344;DHT22;6741;48.964;9.406;2023-10-31T03:08:57;9.70;99.90
13344;DHT22;6741;48.964;9.406;2023-10-31T03:11:24;9.60;99.90
13344;DHT22;6741;48.964;9.406;2023-10-31T03:13:53;9.50;99.90
13344;DHT22;6741;48.964;9.406;2023-10-31T03:16:22;9.50;99.90
13344;DHT22;6741;48.964;9.406;2023-10-31T03:18:48;9.50;99.90
13344;DHT22;6741;48.964;9.406;2023-10-31T03:21:15;9.40;99.90
13344;DHT22;6741;48.964;9.406;2023-10-31T03:23:46;9.40;99.90
13344;DHT22;6741;48.964;9.406;2023-10-31T03:26:13;9.40;99.90
13344;DHT22;6741;48.964;9.406;2023-10-31T03:28:40;9.40;99.90
13344;DHT22;6741;48.964;9.406;2023-10-31T03:31:09;9.30;99.90
13344;DHT22;6741;48.964;9.406;2023-10-31T03:33:35;9.30;99.90
13344;DHT22;6741;48.964;9.406;2023-10-31T03:36:03;9.30;99.90
13344;DHT22;6741;48.964;9.406;2023-10-31T03:38:33;9.30;99.90
13344;DHT22;6741;48.964;9.406;2023-10-31T03:41:00;9.30;99.90
13344;DHT22;6741;48.964;9.406;2023-10-31T03:43:27;9.40;99.90
13344;DHT22;6741;48.964;9.406;2023-10-31T03:45:54;9.40;99.90
13344;DHT22;6741;48.964;9.406;2023-10-31T03:48:23;9.50;99.90
13344;DHT22;6741;48.964;9.406;2023-10-31T03:50:50;9.50;99.90
13344;DHT22;6741;48.964;9.406;2023-10-31T03:53:17;9.60;99.90
13344;DHT22;6741;48.964;9.406;2023-10-31T03:55:44;9.70;99.90
13344;DHT22;6741;48.964;9.406;2023-10-31T03:58:11;9.80;99.90
13344;DHT22;6741;48.964;9.406;2023-10-31T04:00:39;9.80;99.90
13344;DHT22;6741;48.964;9.406;2023-10-31T04:03:06;9.90;99.90
13344;DHT22;6741;48.964;9.406;2023-10-31T04:05:34;9.90;99.90
13344;DHT22;6741;48.964;9.406;2023-10-31T04:08:01;10.00;99.90
13344;DHT22;6741;48.964;9.406;2023-10-31T04:10:28;10.00;99.90
13344;DHT22;6741;48.964;9.406;2023-10-31T04:12:55;10.00;99.90
13344;DHT22;6741;48.964;9.406;2023-10-31T04:15:22;10.00;99.90
13344;DHT22;6741;48.964;9.406;2023-10-31T04:17:49;10.10;99.90
13344;DHT22;6741;48.964;9.406;2023-10-31T04:20:16;10.00;99.90
13344;DHT22;6741;48.964;9.406;2023-10-31T04:22:44;10.10;99.90
13344;DHT22;6741;48.964;9.406;2023-10-31T04:25:11;10.10;99.90
13344;DHT22;6741;48.964;9.406;2023-10-31T04:27:38;10.10;99.90
13344;DHT22;6741;48.964;9.406;2023-10-31T04:30:05;10.10;99.90
13344;DHT22;6741;48.964;9.406;2023-10-31T04:32:32;10.10;99.90
13344;DHT22;6741;48.964;9.406;2023-10-31T04:34:59;10.10;99.90
13344;DHT22;6741;48.964;9.406;2023-10-31T04:37:26;10.10;99.90
13344;DHT22;6741;48.964;9.406;2023-10-31T04:39:54;10.10;99.90
13344;DHT22;6741;48.964;9.406;2023-10-31T04:42:21;10.10;99.90
13344;DHT22;6741;48.964;9.406;2023-10-31T04:44:48;10.10;99.90
13344;DHT22;6741;48.964;9.406;2023-10-31T04:47:15;10.10;99.90
13344;DHT22;6741;48.964;9.406;2023-10-31T04:49:42;10.10;99.90
13344;DHT22;6741;48.964;9.406;2023-10-31T04:52:08;10.10;99.90
13344;DHT22;6741;48.964;9.406;2023-10-31T04:54:35;10.10;99.90
13344;DHT22;6741;48.964;9.406;2023-10-31T04:57:04;10.10;99.90
13344;DHT22;6741;48.964;9.406;2023-10-31T04:59:31;10.10;99.90
13344;DHT22;6741;48.964;9.406;2023-10-31T05:01:58;10.10;99.90
13344;DHT22;6741;48.964;9.406;2023-10-31T05:04:25;10.00;99.90
13344;DHT22;6741;48.964;9.406;2023-10-31T05:06:52;10.00;99.90
13344;DHT22;6741;48.964;9.406;2023-10-31T05:09:19;10.00;99.90
13344;DHT22;6741;48.964;9.406;2023-10-31T05:11:46;10.00;99.90
13344;DHT22;6741;48.964;9.406;2023-10-31T05:14:14;10.00;99.90
13344;DHT22;6741;48.964;9.406;2023-10-31T05:16:42;9.90;99.90
13344;DHT22;6741;48.964;9.406;2023-10-31T05:19:09;9.90;99.90
13344;DHT22;6741;48.964;9.406;2023-10-31T05:21:36;9.90;99.90
13344;DHT22;6741;48.964;9.406;2023-10-31T05:24:03;9.80;99.90
13344;DHT22;6741;48.964;9.406;2023-10-31T05:26:30;9.80;99.90
13344;DHT22;6741;48.964;9.406;2023-10-31T05:28:57;9.80;99.90
13344;DHT22;6741;48.964;9.406;2023-10-31T05:31:26;9.80;99.90
13344;DHT22;6741;48.964;9.406;2023-10-31T05:33:53;9.70;99.90
13344;DHT22;6741;48.964;9.406;2023-10-31T05:36:21;9.60;99.90
13344;DHT22;6741;48.964;9.406;2023-10-31T05:38:49;9.60;99.90
13344;DHT22;6741;48.964;9.406;2023-10-31T05:41:16;9.60;99.90
13344;DHT22;6741;48.964;9.406;2023-10-31T05:43:43;9.60;99.90
13344;DHT22;6741;48.964;9.406;2023-10-31T05:46:10;9.60;99.90
13344;DHT22;6741;48.964;9.406;2023-10-31T05:48:40;9.60;99.90
13344;DHT22;6741;48.964;9.406;2023-10-31T05:51:11;9.60;99.90
13344;DHT22;6741;48.964;9.406;2023-10-31T05:53:39;9.60;99.90
13344;DHT22;6741;48.964;9.406;2023-10-31T05:56:07;9.60;99.90
13344;DHT22;6741;48.964;9.406;2023-10-31T05:58:34;9.60;99.90
13344;DHT22;6741;48.964;9.406;2023-10-31T06:01:01;9.50;99.90
13344;DHT22;6741;48.964;9.406;2023-10-31T06:03:28;9.50;99.90
13344;DHT22;6741;48.964;9.406;2023-10-31T06:05:56;9.40;99.90
13344;DHT22;6741;48.964;9.406;2023-10-31T06:08:23;9.40;99.90
13344;DHT22;6741;48.964;9.406;2023-10-31T06:10:53;9.40;99.90
13344;DHT22;6741;48.964;9.406;2023-10-31T06:13:20;9.30;99.90
13344;DHT22;6741;48.964;9.406;2023-10-31T06:15:47;9.30;99.90
13344;DHT22;6741;48.964;9.406;2023-10-31T06:18:15;9.40;99.90
13344;DHT22;6741;48.964;9.406;2023-10-31T06:20:41;9.40;99.90
13344;DHT22;6741;48.964;9.406;2023-10-31T06:23:10;9.40;99.90
13344;DHT22;6741;48.964;9.406;2023-10-31T06:25:36;9.50;99.90
13344;DHT22;6741;48.964;9.406;2023-10-31T06:28:04;9.50;99.90
13344;DHT22;6741;48.964;9.406;2023-10-31T06:30:31;9.50;99.90
13344;DHT22;6741;48.964;9.406;2023-10-31T06:32:58;9.50;99.90
13344;DHT22;6741;48.964;9.406;2023-10-31T06:35:25;9.60;99.90
13344;DHT22;6741;48.964;9.406;2023-10-31T06:37:53;9.50;99.90
13344;DHT22;6741;48.964;9.406;2023-10-31T06:40:23;9.50;99.90
13344;DHT22;6741;48.964;9.406;2023-10-31T06:42:50;9.60;99.90
13344;DHT22;6741;48.964;9.406;2023-10-31T06:45:17;9.60;99.90
13344;DHT22;6741;48.964;9.406;2023-10-31T06:47:44;9.60;99.90
13344;DHT22;6741;48.964;9.406;2023-10-31T06:50:11;9.60;99.90
13344;DHT22;6741;48.964;9.406;2023-10-31T06:52:38;9.60;99.90
13344;DHT22;6741;48.964;9.406;2023-10-31T06:55:05;9.60;99.90
13344;DHT22;6741;48.964;9.406;2023-10-31T06:57:33;9.70;99.90
13344;DHT22;6741;48.964;9.406;2023-10-31T07:00:01;9.70;99.90
13344;DHT22;6741;48.964;9.406;2023-10-31T07:02:28;9.70;99.90
13344;DHT22;6741;48.964;9.406;2023-10-31T07:04:56;9.70;99.90
13344;DHT22;6741;48.964;9.406;2023-10-31T07:07:22;9.70;99.90
13344;DHT22;6741;48.964;9.406;2023-10-31T07:09:50;9.70;99.90
13344;DHT22;6741;48.964;9.406;2023-10-31T07:12:17;9.80;99.90
13344;DHT22;6741;48.964;9.406;2023-10-31T07:14:45;9.80;99.90
13344;DHT22;6741;48.964;9.406;2023-10-31T07:17:12;9.80;99.90
13344;DHT22;6741;48.964;9.406;2023-10-31T07:19:39;9.80;99.90
13344;DHT22;6741;48.964;9.406;2023-10-31T07:22:05;9.90;99.90
13344;DHT22;6741;48.964;9.406;2023-10-31T07:24:33;9.90;99.90
13344;DHT22;6741;48.964;9.406;2023-10-31T07:27:01;9.90;99.90
13344;DHT22;6741;48.964;9.406;2023-10-31T07:29:29;9.90;99.90
13344;DHT22;6741;48.964;9.406;2023-10-31T07:31:58;10.00;99.90
13344;DHT22;6741;48.964;9.406;2023-10-31T07:34:26;10.00;99.90
13344;DHT22;6741;48.964;9.406;2023-10-31T07:36:53;10.00;99.90
13344;DHT22;6741;48.964;9.406;2023-10-31T07:39:20;10.10;99.90
13344;DHT22;6741;48.964;9.406;2023-10-31T07:41:48;10.10;99.90
13344;DHT22;6741;48.964;9.406;2023-10-31T07:44:15;10.10;99.90
13344;DHT22;6741;48.964;9.406;2023-10-31T07:46:42;10.10;99.90
13344;DHT22;6741;48.964;9.406;2023-10-31T07:49:10;10.10;99.90
13344;DHT22;6741;48.964;9.406;2023-10-31T07:51:37;10.10;99.90
13344;DHT22;6741;48.964;9.406;2023-10-31T07:54:06;10.10;99.90
13344;DHT22;6741;48.964;9.406;2023-10-31T07:56:35;10.20;99.90
13344;DHT22;6741;48.964;9.406;2023-10-31T07:59:04;10.20;99.90
13344;DHT22;6741;48.964;9.406;2023-10-31T08:01:34;10.20;99.90
13344;DHT22;6741;48.964;9.406;2023-10-31T08:04:02;10.30;99.90
13344;DHT22;6741;48.964;9.406;2023-10-31T08:06:32;10.30;99.90
13344;DHT22;6741;48.964;9.406;2023-10-31T08:09:00;10.30;99.90
13344;DHT22;6741;48.964;9.406;2023-10-31T08:11:27;10.30;99.90
13344;DHT22;6741;48.964;9.406;2023-10-31T08:13:55;10.40;99.90
13344;DHT22;6741;48.964;9.406;2023-10-31T08:16:23;10.40;99.90
13344;DHT22;6741;48.964;9.406;2023-10-31T08:18:50;10.40;99.90
13344;DHT22;6741;48.964;9.406;2023-10-31T08:21:17;10.50;99.90
13344;DHT22;6741;48.964;9.406;2023-10-31T08:23:46;10.60;99.90
13344;DHT22;6741;48.964;9.406;2023-10-31T08:26:13;10.70;99.90
13344;DHT22;6741;48.964;9.406;2023-10-31T08:28:40;10.70;99.90
13344;DHT22;6741;48.964;9.406;2023-10-31T08:31:07;10.80;99.90
13344;DHT22;6741;48.964;9.406;2023-10-31T08:33:35;10.80;99.90
13344;DHT22;6741;48.964;9.406;2023-10-31T08:36:04;10.90;99.90
13344;DHT22;6741;48.964;9.406;2023-10-31T08:38:34;10.90;99.90
13344;DHT22;6741;48.964;9.406;2023-10-31T08:41:04;10.90;99.90
13344;DHT22;6741;48.964;9.406;2023-10-31T08:43:31;10.90;99.90
13344;DHT22;6741;48.964;9.406;2023-10-31T08:45:58;11.00;99.90
13344;DHT22;6741;48.964;9.406;2023-10-31T08:48:25;11.00;99.90
13344;DHT22;6741;48.964;9.406;2023-10-31T08:50:52;11.00;99.90
13344;DHT22;6741;48.964;9.406;2023-10-31T08:53:19;11.00;99.90
13344;DHT22;6741;48.964;9.406;2023-10-31T08:55:46;11.00;99.90
13344;DHT22;6741;48.964;9.406;2023-10-31T08:58:17;11.10;99.90
13344;DHT22;6741;48.964;9.406;2023-10-31T09:00:45;11.20;99.90
13344;DHT22;6741;48.964;9.406;2023-10-31T09:03:11;11.20;99.90
13344;DHT22;6741;48.964;9.406;2023-10-31T09:05:39;11.20;99.90
13344;DHT22;6741;48.964;9.406;2023-10-31T09:08:06;11.20;99.90
13344;DHT22;6741;48.964;9.406;2023-10-31T09:10:35;11.20;99.90
13344;DHT22;6741;48.964;9.406;2023-10-31T09:13:03;11.20;99.90
13344;DHT22;6741;48.964;9.406;2023-10-31T09:15:31;11.40;99.90
13344;DHT22;6741;48.964;9.406;2023-10-31T09:17:58;11.50;99.90
13344;DHT22;6741;48.964;9.406;2023-10-31T09:20:25;11.50;99.90
13344;DHT22;6741;48.964;9.406;2023-10-31T09:22:52;11.50;99.90
13344;DHT22;6741;48.964;9.406;2023-10-31T09:25:19;11.60;99.90
13344;DHT22;6741;48.964;9.406;2023-10-31T09:27:46;11.70;99.90
13344;DHT22;6741;48.964;9.406;2023-10-31T09:30:13;11.80;99.90
13344;DHT22;6741;48.964;9.406;2023-10-31T09:32:41;11.80;95.30
13344;DHT22;6741;48.964;9.406;2023-10-31T09:35:10;11.70;94.10
13344;DHT22;6741;48.964;9.406;2023-10-31T09:37:39;11.80;70.50
13344;DHT22;6741;48.964;9.406;2023-10-31T09:40:07;11.80;67.30
13344;DHT22;6741;48.964;9.406;2023-10-31T09:42:34;11.80;57.30
13344;DHT22;6741;48.964;9.406;2023-10-31T09:45:01;11.60;64.40
13344;DHT22;6741;48.964;9.406;2023-10-31T09:47:29;11.60;88.00
13344;DHT22;6741;48.964;9.406;2023-10-31T09:49:58;11.70;48.80
13344;DHT22;6741;48.964;9.406;2023-10-31T09:52:25;11.70;71.70
13344;DHT22;6741;48.964;9.406;2023-10-31T09:54:53;11.70;37.80
13344;DHT22;6741;48.964;9.406;2023-10-31T09:57:21;11.70;94.50
13344;DHT22;6741;48.964;9.406;2023-10-31T09:59:48;11.80;91.60
13344;DHT22;6741;48.964;9.406;2023-10-31T10:02:15;11.80;65.90
13344;DHT22;6741;48.964;9.406;2023-10-31T10:04:42;11.80;61.50
13344;DHT22;6741;48.964;9.406;2023-10-31T10:07:13;11.80;50.00
13344;DHT22;6741;48.964;9.406;2023-10-31T10:09:42;11.90;70.40
13344;DHT22;6741;48.964;9.406;2023-10-31T10:12:12;12.10;61.20
13344;DHT22;6741;48.964;9.406;2023-10-31T10:14:39;12.10;36.30
13344;DHT22;6741;48.964;9.406;2023-10-31T10:17:14;12.00;11.80
13344;DHT22;6741;48.964;9.406;2023-10-31T10:19:41;12.00;10.90
13344;DHT22;6741;48.964;9.406;2023-10-31T10:22:09;12.00;1.00
13344;DHT22;6741;48.964;9.406;2023-10-31T10:24:39;12.10;6.40
13344;DHT22;6741;48.964;9.406;2023-10-31T10:27:07;12.10;1.00
13344;DHT22;6741;48.964;9.406;2023-10-31T10:29:35;12.10;1.00
13344;DHT22;6741;48.964;9.406;2023-10-31T10:32:05;12.10;1.00
13344;DHT22;6741;48.964;9.406;2023-10-31T10:34:34;12.00;1.00
13344;DHT22;6741;48.964;9.406;2023-10-31T10:37:05;12.00;1.00
13344;DHT22;6741;48.964;9.406;2023-10-31T10:39:34;12.10;1.00
13344;DHT22;6741;48.964;9.406;2023-10-31T10:42:09;12.20;1.00
13344;DHT22;6741;48.964;9.406;2023-10-31T10:44:41;12.30;1.00
13344;DHT22;6741;48.964;9.406;2023-10-31T10:47:12;12.30;1.00
13344;DHT22;6741;48.964;9.406;2023-10-31T10:49:42;12.30;1.00
13344;DHT22;6741;48.964;9.406;2023-10-31T10:52:20;12.30;1.00
13344;DHT22;6741;48.964;9.406;2023-10-31T10:54:53;12.40;1.00
13344;DHT22;6741;48.964;9.406;2023-10-31T10:57:28;12.40;1.00
13344;DHT22;6741;48.964;9.406;2023-10-31T11:00:02;12.30;1.00
13344;DHT22;6741;48.964;9.406;2023-10-31T11:02:30;12.50;28.50
13344;DHT22;6741;48.964;9.406;2023-10-31T11:05:00;13.00;1.00
13344;DHT22;6741;48.964;9.406;2023-10-31T11:07:28;13.20;1.00
13344;DHT22;6741;48.964;9.406;2023-10-31T11:09:58;12.90;1.00
13344;DHT22;6741;48.964;9.406;2023-10-31T11:12:29;12.80;1.00
13344;DHT22;6741;48.964;9.406;2023-10-31T11:14:57;12.80;1.00
13344;DHT22;6741;48.964;9.406;2023-10-31T11:17:26;12.70;1.00
13344;DHT22;6741;48.964;9.406;2023-10-31T11:19:55;12.60;1.00
13344;DHT22;6741;48.964;9.406;2023-10-31T11:22:22;12.50;1.00
13344;DHT22;6741;48.964;9.406;2023-10-31T11:24:50;12.60;1.00
13344;DHT22;6741;48.964;9.406;2023-10-31T11:27:19;12.50;1.00
13344;DHT22;6741;48.964;9.406;2023-10-31T11:29:47;12.60;1.00
13344;DHT22;6741;48.964;9.406;2023-10-31T11:32:14;12.60;1.00
13344;DHT22;6741;48.964;9.406;2023-10-31T11:34:42;12.60;1.00
13344;DHT22;6741;48.964;9.406;2023-10-31T11:37:22;12.60;6.20
13344;DHT22;6741;48.964;9.406;2023-10-31T11:40:15;12.60;1.00
13344;DHT22;6741;48.964;9.406;2023-10-31T11:42:46;12.60;1.00
13344;DHT22;6741;48.964;9.406;2023-10-31T11:45:25;12.60;1.00
13344;DHT22;6741;48.964;9.406;2023-10-31T11:47:52;12.70;1.00
13344;DHT22;6741;48.964;9.406;2023-10-31T11:50:19;12.60;1.00
13344;DHT22;6741;48.964;9.406;2023-10-31T11:52:58;12.50;1.00
13344;DHT22;6741;48.964;9.406;2023-10-31T11:55:25;12.60;1.00
13344;DHT22;6741;48.964;9.406;2023-10-31T11:57:53;12.60;1.00
13344;DHT22;6741;48.964;9.406;2023-10-31T12:00:21;12.80;1.00
13344;DHT22;6741;48.964;9.406;2023-10-31T12:02:59;12.80;1.00
13344;DHT22;6741;48.964;9.406;2023-10-31T12:05:26;12.80;1.00
13344;DHT22;6741;48.964;9.406;2023-10-31T12:07:53;12.80;1.00
13344;DHT22;6741;48.964;9.406;2023-10-31T12:10:24;12.70;1.00
13344;DHT22;6741;48.964;9.406;2023-10-31T12:12:54;12.50;1.00
13344;DHT22;6741;48.964;9.406;2023-10-31T12:15:21;12.50;1.30
13344;DHT22;6741;48.964;9.406;2023-10-31T12:17:48;12.40;15.90
13344;DHT22;6741;48.964;9.406;2023-10-31T12:20:15;12.30;89.80
13344;DHT22;6741;48.964;9.406;2023-10-31T12:22:42;12.20;99.90
13344;DHT22;6741;48.964;9.406;2023-10-31T12:25:11;12.30;99.90
13344;DHT22;6741;48.964;9.406;2023-10-31T12:27:44;12.30;99.90
13344;DHT22;6741;48.964;9.406;2023-10-31T12:30:14;12.50;99.90
13344;DHT22;6741;48.964;9.406;2023-10-31T12:32:42;12.60;97.80
13344;DHT22;6741;48.964;9.406;2023-10-31T12:35:11;12.70;99.90
13344;DHT22;6741;48.964;9.406;2023-10-31T12:37:43;12.80;95.40
13344;DHT22;6741;48.964;9.406;2023-10-31T12:40:11;12.80;77.40
13344;DHT22;6741;48.964;9.406;2023-10-31T12:42:42;12.60;42.80
13344;DHT22;6741;48.964;9.406;2023-10-31T12:45:10;12.60;92.70
13344;DHT22;6741;48.964;9.406;2023-10-31T12:47:38;12.60;75.90
13344;DHT22;6741;48.964;9.406;2023-10-31T12:50:07;12.50;67.80
13344;DHT22;6741;48.964;9.406;2023-10-31T12:52:48;12.40;96.00
13344;DHT22;6741;48.964;9.406;2023-10-31T12:55:17;12.40;99.90
13344;DHT22;6741;48.964;9.406;2023-10-31T12:57:45;12.30;82.50
13344;DHT22;6741;48.964;9.406;2023-10-31T13:00:14;12.30;99.90
13344;DHT22;6741;48.964;9.406;2023-10-31T13:02:43;12.20;99.90
13344;DHT22;6741;48.964;9.406;2023-10-31T13:05:11;12.10;99.90
13344;DHT22;6741;48.964;9.406;2023-10-31T13:07:39;11.80;99.90
13344;DHT22;6741;48.964;9.406;2023-10-31T13:10:07;11.60;99.90
13344;DHT22;6741;48.964;9.406;2023-10-31T13:12:35;11.40;99.90
13344;DHT22;6741;48.964;9.406;2023-10-31T13:15:03;11.20;99.90
13344;DHT22;6741;48.964;9.406;2023-10-31T13:17:31;11.00;99.90
13344;DHT22;6741;48.964;9.406;2023-10-31T13:19:59;11.10;99.90
13344;DHT22;6741;48.964;9.406;2023-10-31T13:22:26;11.10;99.90
13344;DHT22;6741;48.964;9.406;2023-10-31T13:24:53;11.10;99.90
13344;DHT22;6741;48.964;9.406;2023-10-31T13:27:19;11.10;99.90
13344;DHT22;6741;48.964;9.406;2023-10-31T13:29:46;11.20;99.90
13344;DHT22;6741;48.964;9.406;2023-10-31T13:32:15;11.20;99.90
13344;DHT22;6741;48.964;9.406;2023-10-31T13:34:42;11.20;99.90
13344;DHT22;6741;48.964;9.406;2023-10-31T13:37:11;11.20;99.90
13344;DHT22;6741;48.964;9.406;2023-10-31T13:39:37;11.20;99.90
13344;DHT22;6741;48.964;9.406;2023-10-31T13:42:05;11.20;99.90
13344;DHT22;6741;48.964;9.406;2023-10-31T13:44:32;11.20;99.90
13344;DHT22;6741;48.964;9.406;2023-10-31T13:46:59;11.20;99.90
13344;DHT22;6741;48.964;9.406;2023-10-31T13:49:26;11.20;99.90
13344;DHT22;6741;48.964;9.406;2023-10-31T13:51:53;11.20;99.90
13344;DHT22;6741;48.964;9.406;2023-10-31T13:54:21;11.30;99.90
13344;DHT22;6741;48.964;9.406;2023-10-31T13:56:48;11.40;99.90
13344;DHT22;6741;48.964;9.406;2023-10-31T13:59:15;11.40;99.90
13344;DHT22;6741;48.964;9.406;2023-10-31T14:01:43;11.40;99.90
13344;DHT22;6741;48.964;9.406;2023-10-31T14:04:11;11.50;99.90
13344;DHT22;6741;48.964;9.406;2023-10-31T14:06:39;11.70;99.90
13344;DHT22;6741;48.964;9.406;2023-10-31T14:09:08;11.70;99.90
13344;DHT22;6741;48.964;9.406;2023-10-31T14:11:37;11.70;99.90
13344;DHT22;6741;48.964;9.406;2023-10-31T14:14:05;11.80;99.90
13344;DHT22;6741;48.964;9.406;2023-10-31T14:16:34;11.70;99.90
13344;DHT22;6741;48.964;9.406;2023-10-31T14:19:01;11.80;99.90
13344;DHT22;6741;48.964;9.406;2023-10-31T14:21:29;11.80;99.90
13344;DHT22;6741;48.964;9.406;2023-10-31T14:23:56;11.90;99.90
13344;DHT22;6741;48.964;9.406;2023-10-31T14:26:24;12.00;99.90
13344;DHT22;6741;48.964;9.406;2023-10-31T14:28:52;12.00;99.90
13344;DHT22;6741;48.964;9.406;2023-10-31T14:31:19;12.00;99.90
13344;DHT22;6741;48.964;9.406;2023-10-31T14:33:46;12.00;99.90
13344;DHT22;6741;48.964;9.406;2023-10-31T14:36:13;11.90;99.90
13344;DHT22;6741;48.964;9.406;2023-10-31T14:38:41;11.90;99.90
13344;DHT22;6741;48.964;9.406;2023-10-31T14:41:08;11.80;99.90
13344;DHT22;6741;48.964;9.406;2023-10-31T14:43:36;11.90;99.90
13344;DHT22;6741;48.964;9.406;2023-10-31T14:46:04;11.90;99.90
13344;DHT22;6741;48.964;9.406;2023-10-31T14:48:33;11.90;99.90
13344;DHT22;6741;48.964;9.406;2023-10-31T14:50:59;11.90;99.90
13344;DHT22;6741;48.964;9.406;2023-10-31T14:53:28;11.90;99.90
13344;DHT22;6741;48.964;9.406;2023-10-31T14:55:55;11.90;99.90
13344;DHT22;6741;48.964;9.406;2023-10-31T14:58:22;11.90;99.90
13344;DHT22;6741;48.964;9.406;2023-10-31T15:00:49;11.90;99.90
13344;DHT22;6741;48.964;9.406;2023-10-31T15:03:18;11.90;99.90
13344;DHT22;6741;48.964;9.406;2023-10-31T15:05:46;11.90;99.90
13344;DHT22;6741;48.964;9.406;2023-10-31T15:08:13;11.90;99.90
13344;DHT22;6741;48.964;9.406;2023-10-31T15:10:39;11.90;99.90
13344;DHT22;6741;48.964;9.406;2023-10-31T15:13:06;12.00;99.90
13344;DHT22;6741;48.964;9.406;2023-10-31T15:15:33;11.90;99.90
13344;DHT22;6741;48.964;9.406;2023-10-31T15:18:00;11.90;99.90
13344;DHT22;6741;48.964;9.406;2023-10-31T15:20:29;11.90;99.90
13344;DHT22;6741;48.964;9.406;2023-10-31T15:22:56;11.90;99.90
13344;DHT22;6741;48.964;9.406;2023-10-31T15:25:23;11.90;99.90
13344;DHT22;6741;48.964;9.406;2023-10-31T15:27:50;11.90;99.90
13344;DHT22;6741;48.964;9.406;2023-10-31T15:30:17;11.80;99.90
13344;DHT22;6741;48.964;9.406;2023-10-31T15:32:44;11.80;99.90
13344;DHT22;6741;48.964;9.406;2023-10-31T15:35:11;11.80;99.90
13344;DHT22;6741;48.964;9.406;2023-10-31T15:37:39;11.80;99.90
13344;DHT22;6741;48.964;9.406;2023-10-31T15:40:08;11.70;99.90
13344;DHT22;6741;48.964;9.406;2023-10-31T15:42:35;11.70;99.90
13344;DHT22;6741;48.964;9.406;2023-10-31T15:45:03;11.60;99.90
13344;DHT22;6741;48.964;9.406;2023-10-31T15:47:30;11.60;99.90
13344;DHT22;6741;48.964;9.406;2023-10-31T15:49:57;11.60;99.90
13344;DHT22;6741;48.964;9.406;2023-10-31T15:52:24;11.60;99.90
13344;DHT22;6741;48.964;9.406;2023-10-31T15:54:52;11.60;99.90
13344;DHT22;6741;48.964;9.406;2023-10-31T15:57:19;11.60;99.90